Home > Products > Valid Products > TAF

000
FTUS43 KMQT 291510 AAA
TAFSAW
TAF AMD
KSAW 291510Z 2915/3012 20010KT P6SM VCSH SCT015 BKN020
      TEMPO 2915/2918 5SM -SHRA OVC015
     FM291800 22008KT 5SM -SHRA OVC025
      TEMPO 2918/2922 3SM TSRA BKN015CB
     FM292200 26007KT P6SM VCSH OVC030
     FM300000 28007KT P6SM BKN030
     FM300300 26005KT P6SM SCT030=



000
FTUS43 KMQT 291505 AAA
TAFCMX
TAF AMD
KCMX 291505Z 2915/3012 27011KT P6SM VCSH SCT008 OVC015
     FM292000 27014G21KT P6SM OVC015
     FM300000 27014G20KT P6SM BKN025
     FM300400 27009KT P6SM BKN025
     FM300700 27007KT P6SM SCT025=



000
FTUS43 KMQT 291120
TAFCMX
TAF
KCMX 291120Z 2912/3012 VRB03KT 1/4SM FG OVC001
     FM291300 24005KT 3/4SM BR VCSH OVC003
      TEMPO 2913/2915 1/4SM FG
     FM291700 26009KT 3SM BR VCSH OVC008
     FM292000 27014G21KT 6SM BR OVC015
     FM300000 27014G20KT P6SM BKN025
     FM300400 27009KT P6SM BKN025
     FM300700 27007KT P6SM SCT025=



000
FTUS43 KMQT 291120
TAFSAW
TAF
KSAW 291120Z 2912/3012 19009KT P6SM SCT005
      TEMPO 2912/2914 BKN005
     FM291400 20009KT P6SM BKN010
     FM291600 21008KT P6SM -SHRA OVC015
     FM291800 22008KT 5SM -SHRA OVC025
      TEMPO 2918/2922 3SM TSRA BKN015CB
     FM292200 26007KT P6SM VCSH OVC030
     FM300000 28007KT P6SM BKN030
     FM300300 26005KT P6SM SCT030=



000
FTUS43 KMQT 290522
TAFSAW
TAF
KSAW 290522Z 2906/3006 19007KT P6SM VCSH BKN060
     FM290800 18006KT 4SM BR BKN020
     FM291000 18003KT 4SM BR BKN003
     FM291600 21009KT P6SM -SHRA OVC015
     FM291800 22009KT P6SM -SHRA OVC025
     FM292200 26007KT P6SM VCSH BKN025
     FM300000 28006KT P6SM SCT025=



000
FTUS43 KMQT 290522
TAFCMX
TAF
KCMX 290522Z 2906/3006 00000KT 2SM BR OVC003
     FM291500 26011G20KT 4SM BR OVC003
     FM291900 27012G21KT P6SM OVC015
     FM292300 26015G22KT P6SM BKN015
     FM300400 27008KT P6SM SCT050=



000
FTUS43 KMQT 282332
TAFCMX
TAF
KCMX 282332Z 2900/2924 01006KT P6SM -SHRA BKN050
     FM290100 00000KT 5SM BR OVC006
     FM290400 00000KT 1SM BR OVC003
     FM291600 25006KT 4SM BR OVC003
     FM292000 27006KT 2SM -RA BR OVC003=



000
FTUS43 KMQT 282332
TAFSAW
TAF
KSAW 282332Z 2900/2924 14011KT P6SM VCSH BKN050
      TEMPO 2901/2904 BKN025
     FM290400 19008KT P6SM BKN025
     FM290800 20009KT 2SM BR OVC002
     FM291400 20006KT P6SM VCSH OVC008
     FM291900 25007KT P6SM -SHRA OVC025=



000
FTUS43 KMQT 281722
TAFCMX
TAF
KCMX 281722Z 2818/2918 11006KT P6SM VCSH OVC015
     FM290100 00000KT 5SM BR OVC006
     FM290400 00000KT 1SM BR OVC003
     FM291600 25006KT 4SM BR OVC003=



000
FTUS43 KMQT 281722
TAFSAW
TAF
KSAW 281722Z 2818/2918 18010KT P6SM VCSH OVC008
     FM282100 18010KT P6SM VCSH BKN015
     FM290400 19008KT P6SM BKN025
     FM290800 20009KT 2SM BR OVC002
     FM291400 20006KT P6SM VCSH OVC008=



000
FTUS43 KMQT 280833 AAA
TAFSAW
TAF AMD
KSAW 280833Z 2809/2906 18007KT 1/4SM FG OVC002
     FM281200 18006KT 1/2SM FG OVC003
     FM281400 19007KT 3SM BR OVC006
     FM281600 18008KT 5SM BR VCSH OVC008
     FM281800 18009KT P6SM -SHRA OVC015
     FM290100 18008KT P6SM VCSH BKN030=



000
FTUS43 KMQT 272338
TAFSAW
TAF
KSAW 272338Z 2800/2824 10006KT P6SM OVC080
     FM280400 13005KT 4SM -SHRA BR OVC025
     FM280800 14003KT 1SM BR OVC003
     FM281300 18003KT P6SM OVC003
     FM281600 19006KT P6SM OVC010
     FM281800 18007KT P6SM VCSH BKN025=



000
FTUS43 KMQT 272338
TAFCMX
TAF
KCMX 272338Z 2800/2824 09009KT P6SM OVC050
     FM280200 09009KT 3SM BR OVC030
     FM280600 10006KT 1 1/2SM BR OVC003
     FM281000 10003KT 1/4SM FG OVC001
     FM281400 11004KT P6SM VCSH OVC003
     FM281600 10005KT P6SM VCSH OVC015
     FM282000 10005KT P6SM VCSH BKN030=



000
FTUS43 KMQT 270532 AAA
TAFSAW
TAF AMD
KSAW 270532Z 2706/2806 19005KT 3SM BR SCT120
     FM270900 22004KT 1SM BR BKN070
     FM271100 23003KT 3/4SM BR BKN005
     FM271400 12003KT P6SM BKN090
     FM272200 13004KT P6SM VCSH OVC100
     FM280000 11005KT P6SM -SHRA OVC030
     FM280200 12005KT 5SM -SHRA BR OVC015=



000
FTUS43 KMQT 270532 AAC
TAFCMX
TAF AMD
KCMX 270532Z 2706/2806 VRB03KT 1/4SM FG VV001
     FM271000 28004KT 1/2SM FG OVC001
     FM271300 34003KT 2SM BR BKN010
     FM271400 06004KT P6SM BKN020
     FM271800 09008KT P6SM VCSH OVC110
     FM272200 09007KT P6SM -SHRA OVC070=



    US Dept of Commerce
    National Oceanic and Atmospheric Administration
    National Weather Service
    1325 East West Highway
    Silver Spring, MD 20910
    Page Author: NWS Internet Services Team
Disclaimer
Information Quality
Credits
Glossary
Privacy Policy
Freedom of Information Act (FOIA)
About Us
Career Opportunities